createdAt,value
2019-04-20T00:02:25.384Z,94.60
2019-04-20T00:04:55.021Z,94.40
2019-04-20T00:07:29.564Z,94.50
2019-04-20T00:10:01.402Z,94.70
2019-04-20T00:12:38.376Z,94.90
2019-04-20T00:14:54.633Z,95.00
2019-04-20T00:17:25.036Z,95.20
2019-04-20T00:19:56.081Z,95.50
2019-04-20T00:22:53.293Z,95.60
2019-04-20T00:25:52.179Z,95.80
2019-04-20T00:28:25.083Z,96.00
2019-04-20T00:31:00.028Z,96.00
2019-04-20T00:33:24.160Z,96.20
2019-04-20T00:35:40.160Z,96.20
2019-04-20T00:38:09.861Z,96.60
2019-04-20T00:40:39.269Z,96.20
2019-04-20T00:43:08.721Z,96.40
2019-04-20T00:45:46.810Z,96.50
2019-04-20T00:48:19.931Z,96.50
2019-04-20T00:50:53.701Z,96.50
2019-04-20T00:53:19.828Z,96.50
2019-04-20T00:55:38.312Z,96.60
2019-04-20T00:58:16.967Z,96.60
2019-04-20T01:01:01.485Z,96.70
2019-04-20T01:03:23.277Z,96.90
2019-04-20T01:06:11.111Z,97.20
2019-04-20T01:08:21.249Z,97.40
2019-04-20T01:10:54.179Z,97.50
2019-04-20T01:13:23.472Z,97.90
2019-04-20T01:15:58.094Z,97.50
2019-04-20T01:18:20.802Z,97.70
2019-04-20T01:20:49.431Z,97.80
2019-04-20T01:23:21.302Z,97.70
2019-04-20T01:25:56.898Z,97.90
2019-04-20T01:28:32.377Z,98.00
2019-04-20T01:31:00.010Z,98.20
2019-04-20T01:33:31.804Z,98.40
2019-04-20T01:36:04.867Z,98.50
2019-04-20T01:38:34.666Z,98.60
2019-04-20T01:40:50.587Z,98.70
2019-04-20T01:43:20.485Z,98.90
2019-04-20T01:45:58.688Z,99.10
2019-04-20T01:48:25.520Z,99.20
2019-04-20T01:50:59.806Z,99.40
2019-04-20T01:53:41.428Z,99.40
2019-04-20T01:56:15.294Z,99.50
2019-04-20T01:59:02.706Z,99.60
2019-04-20T02:01:34.302Z,99.60
2019-04-20T02:04:25.246Z,99.50
2019-04-20T02:06:53.293Z,99.50
2019-04-20T02:09:21.173Z,99.60
2019-04-20T02:11:50.801Z,99.80
2019-04-20T02:14:24.188Z,99.90
2019-04-20T02:16:56.524Z,99.90
2019-04-20T02:19:34.720Z,99.90
2019-04-20T02:22:03.576Z,99.90
2019-04-20T02:24:38.836Z,99.90
2019-04-20T02:27:08.176Z,99.90
2019-04-20T02:30:02.520Z,99.90
2019-04-20T02:32:43.283Z,99.90
2019-04-20T02:35:18.697Z,99.90
2019-04-20T02:37:56.761Z,99.90
2019-04-20T02:40:19.196Z,99.90
2019-04-20T02:42:51.501Z,99.90
2019-04-20T02:45:24.048Z,99.90
2019-04-20T02:50:20.590Z,99.90
2019-04-20T02:52:56.293Z,99.90
2019-04-20T02:57:54.858Z,99.90
2019-04-20T03:00:12.288Z,99.90
2019-04-20T03:02:35.964Z,99.90
2019-04-20T03:05:04.053Z,99.90
2019-04-20T03:07:34.284Z,99.90
2019-04-20T03:10:06.439Z,99.90
2019-04-20T03:12:55.024Z,99.90
2019-04-20T03:15:04.549Z,99.90
2019-04-20T03:17:38.708Z,99.90
2019-04-20T03:20:06.899Z,99.90
2019-04-20T03:23:05.506Z,99.90
2019-04-20T03:25:15.216Z,99.90
2019-04-20T03:27:41.436Z,99.90
2019-04-20T03:31:16.320Z,99.90
2019-04-20T03:33:31.538Z,99.90
2019-04-20T03:35:37.158Z,99.90
2019-04-20T03:38:07.565Z,99.90
2019-04-20T03:40:29.663Z,99.90
2019-04-20T03:42:44.666Z,99.90
2019-04-20T03:45:17.848Z,99.90
2019-04-20T03:47:56.199Z,99.90
2019-04-20T03:50:39.390Z,99.90
2019-04-20T03:53:11.009Z,99.90
2019-04-20T03:55:37.045Z,99.90
2019-04-20T03:58:14.238Z,99.90
2019-04-20T04:01:01.106Z,99.90
2019-04-20T04:03:47.588Z,99.90
2019-04-20T04:06:07.644Z,99.90
2019-04-20T04:08:32.616Z,99.90
2019-04-20T04:11:15.986Z,99.90
2019-04-20T04:13:26.954Z,99.90
2019-04-20T04:16:02.801Z,99.90
2019-04-20T04:18:34.755Z,99.90
2019-04-20T04:21:02.998Z,99.90
2019-04-20T04:23:47.114Z,99.90
2019-04-20T04:26:13.001Z,99.90
2019-04-20T04:28:46.277Z,99.90
2019-04-20T04:31:20.485Z,99.90
2019-04-20T04:36:13.554Z,99.90
2019-04-20T04:38:51.731Z,99.90
2019-04-20T04:41:31.056Z,99.90
2019-04-20T04:43:44.116Z,99.90
2019-04-20T04:45:59.636Z,99.90
2019-04-20T04:48:35.104Z,99.90
2019-04-20T04:51:03.824Z,99.90
2019-04-20T04:53:42.899Z,99.90
2019-04-20T04:56:05.822Z,99.90
2019-04-20T04:58:29.805Z,99.90
2019-04-20T05:01:05.605Z,99.90
2019-04-20T05:03:47.680Z,99.90
2019-04-20T05:06:19.712Z,99.90
2019-04-20T05:08:39.272Z,99.90
2019-04-20T05:11:02.603Z,99.90
2019-04-20T05:13:36.857Z,99.90
2019-04-20T05:16:16.754Z,99.90
2019-04-20T05:18:57.929Z,99.90
2019-04-20T05:21:25.426Z,99.90
2019-04-20T05:23:47.708Z,99.90
2019-04-20T05:26:29.894Z,99.90
2019-04-20T05:28:58.991Z,99.90
2019-04-20T05:31:24.470Z,99.90
2019-04-20T05:34:15.753Z,99.90
2019-04-20T05:36:41.512Z,99.90
2019-04-20T05:39:14.450Z,99.50
2019-04-20T05:41:38.326Z,99.40
2019-04-20T05:44:11.509Z,98.80
2019-04-20T05:46:42.250Z,98.40
2019-04-20T05:49:18.969Z,98.00
2019-04-20T05:51:43.245Z,97.50
2019-04-20T05:54:16.483Z,97.10
2019-04-20T05:57:19.612Z,96.60
2019-04-20T05:59:11.117Z,96.50
2019-04-20T06:01:45.274Z,96.20
2019-04-20T06:04:10.214Z,95.80
2019-04-20T06:06:44.630Z,95.20
2019-04-20T06:09:20.964Z,94.70
2019-04-20T06:12:00.800Z,94.20
2019-04-20T06:14:19.363Z,94.10
2019-04-20T06:17:11.292Z,93.50
2019-04-20T06:19:36.959Z,93.10
2019-04-20T06:22:23.110Z,92.70
2019-04-20T06:25:17.124Z,92.30
2019-04-20T06:27:34.226Z,91.90
2019-04-20T06:30:01.141Z,91.60
2019-04-20T06:33:14.930Z,91.60
2019-04-20T06:36:00.920Z,91.40
2019-04-20T06:38:31.132Z,91.50
2019-04-20T06:43:13.225Z,90.80
2019-04-20T06:45:51.142Z,90.60
2019-04-20T06:48:16.078Z,90.40
2019-04-20T06:50:40.512Z,90.10
2019-04-20T06:53:23.901Z,89.60
2019-04-20T06:56:09.904Z,88.70
2019-04-20T06:58:33.422Z,87.60
2019-04-20T07:00:49.634Z,87.40
2019-04-20T07:03:37.554Z,87.50
2019-04-20T07:05:54.853Z,87.50
2019-04-20T07:08:45.091Z,86.40
2019-04-20T07:10:59.368Z,86.00
2019-04-20T07:13:17.667Z,84.60
2019-04-20T07:15:49.409Z,83.70
2019-04-20T07:18:31.103Z,84.00
2019-04-20T07:21:16.071Z,83.80
2019-04-20T07:26:07.378Z,83.20
2019-04-20T07:28:32.881Z,82.50
2019-04-20T07:30:57.997Z,82.20
2019-04-20T07:33:32.228Z,81.90
2019-04-20T07:35:56.191Z,81.60
2019-04-20T07:38:38.135Z,80.70
2019-04-20T07:41:02.962Z,80.20
2019-04-20T07:43:30.081Z,80.60
2019-04-20T07:46:01.851Z,80.00
2019-04-20T07:48:26.204Z,79.50
2019-04-20T07:50:52.337Z,79.30
2019-04-20T07:53:26.045Z,79.70
2019-04-20T07:56:20.800Z,79.60
2019-04-20T07:58:22.805Z,79.90
2019-04-20T08:01:09.116Z,79.00
2019-04-20T08:03:38.153Z,78.50
2019-04-20T08:06:02.321Z,77.10
2019-04-20T08:08:39.989Z,77.10
2019-04-20T08:11:10.333Z,76.20
2019-04-20T08:13:46.772Z,76.40
2019-04-20T08:16:20.643Z,76.00
2019-04-20T08:21:17.907Z,73.50
2019-04-20T08:23:44.108Z,73.10
2019-04-20T08:26:05.493Z,73.30
2019-04-20T08:28:42.360Z,71.90
2019-04-20T08:31:21.706Z,71.80
2019-04-20T08:34:28.519Z,70.60
2019-04-20T08:36:41.707Z,70.40
2019-04-20T08:39:24.527Z,70.80
2019-04-20T08:41:37.059Z,70.70
2019-04-20T08:44:23.872Z,70.00
2019-04-20T08:46:47.750Z,69.70
2019-04-20T08:49:12.822Z,68.20
2019-04-20T08:51:53.211Z,67.80
2019-04-20T08:54:06.895Z,67.50
2019-04-20T08:56:31.681Z,67.50
2019-04-20T08:58:51.667Z,66.50
2019-04-20T09:01:27.347Z,65.40
2019-04-20T09:04:02.066Z,63.30
2019-04-20T09:06:36.477Z,64.10
2019-04-20T09:09:11.670Z,63.30
2019-04-20T09:11:47.632Z,62.50
2019-04-20T09:13:58.429Z,61.60
2019-04-20T09:16:31.741Z,61.00
2019-04-20T09:18:59.990Z,60.90
2019-04-20T09:21:36.681Z,59.80
2019-04-20T09:24:24.366Z,60.00
2019-04-20T09:26:43.230Z,59.30
2019-04-20T09:29:11.121Z,58.90
2019-04-20T09:31:43.366Z,59.30
2019-04-20T09:34:21.898Z,58.30
2019-04-20T09:37:11.522Z,58.20
2019-04-20T09:39:30.657Z,57.70
2019-04-20T09:42:01.251Z,57.00
2019-04-20T09:44:34.944Z,56.70
2019-04-20T09:46:59.871Z,56.50
2019-04-20T09:49:40.240Z,56.00
2019-04-20T09:52:12.191Z,56.00
2019-04-20T09:54:46.030Z,54.20
2019-04-20T09:57:22.916Z,53.20
2019-04-20T09:59:44.737Z,53.20
2019-04-20T10:02:06.726Z,53.00
2019-04-20T10:04:29.063Z,52.50
2019-04-20T10:07:02.321Z,52.50
2019-04-20T10:09:34.664Z,52.30
2019-04-20T10:11:59.573Z,51.90
2019-04-20T10:14:28.940Z,51.30
2019-04-20T10:16:57.967Z,50.90
2019-04-20T10:19:32.433Z,50.90
2019-04-20T10:21:57.028Z,50.80
2019-04-20T10:24:26.469Z,51.00
2019-04-20T10:26:56.513Z,50.90
2019-04-20T10:29:25.824Z,50.30
2019-04-20T10:31:57.245Z,50.00
2019-04-20T10:34:24.727Z,49.70
2019-04-20T10:36:55.525Z,48.80
2019-04-20T10:39:28.786Z,48.30
2019-04-20T10:42:01.219Z,48.10
2019-04-20T10:44:29.291Z,48.00
2019-04-20T10:46:58.811Z,47.70
2019-04-20T10:49:27.459Z,46.50
2019-04-20T10:51:56.017Z,46.30
2019-04-20T10:54:24.801Z,45.50
2019-04-20T10:56:53.293Z,45.60
2019-04-20T10:59:21.819Z,45.60
2019-04-20T11:01:51.698Z,45.30
2019-04-20T11:04:20.912Z,45.20
2019-04-20T11:06:50.341Z,45.10
2019-04-20T11:09:18.960Z,45.20
2019-04-20T11:11:48.293Z,45.20
2019-04-20T11:14:25.794Z,45.70
2019-04-20T11:16:48.436Z,45.40
2019-04-20T11:19:17.049Z,44.70
2019-04-20T11:21:46.307Z,45.00
2019-04-20T11:24:16.287Z,44.70
2019-04-20T11:26:46.500Z,44.60
2019-04-20T11:29:16.072Z,44.60
2019-04-20T11:31:49.514Z,44.50
2019-04-20T11:34:21.938Z,44.40
2019-04-20T11:36:45.438Z,43.80
2019-04-20T11:39:14.782Z,43.70
2019-04-20T11:41:43.716Z,43.30
2019-04-20T11:44:13.788Z,42.70
2019-04-20T11:46:44.882Z,42.50
2019-04-20T11:49:13.196Z,42.00
2019-04-20T11:51:41.985Z,41.30
2019-04-20T11:54:10.541Z,40.40
2019-04-20T11:56:43.516Z,39.20
2019-04-20T11:59:12.386Z,38.90
2019-04-20T12:02:00.118Z,38.00
2019-04-20T12:04:40.414Z,36.20
2019-04-20T12:07:01.199Z,35.10
2019-04-20T12:09:49.462Z,34.50
2019-04-20T12:12:29.388Z,33.50
2019-04-20T12:14:48.531Z,32.00
2019-04-20T12:17:17.649Z,31.30
2019-04-20T12:19:53.678Z,31.00
2019-04-20T12:22:22.125Z,30.40
2019-04-20T12:24:51.931Z,30.80
2019-04-20T12:27:20.939Z,30.90
2019-04-20T12:29:49.884Z,31.10
2019-04-20T12:32:19.634Z,30.70
2019-04-20T12:34:49.506Z,29.30
2019-04-20T12:37:18.751Z,29.60
2019-04-20T12:39:49.089Z,30.10
2019-04-20T12:42:18.916Z,29.60
2019-04-20T12:44:47.953Z,29.50
2019-04-20T12:47:17.473Z,29.10
2019-04-20T12:49:45.982Z,28.70
2019-04-20T12:52:14.498Z,28.60
2019-04-20T12:54:45.102Z,28.60
2019-04-20T12:57:14.506Z,28.50
2019-04-20T12:59:45.564Z,27.90
2019-04-20T13:02:13.542Z,27.40
2019-04-20T13:05:01.703Z,26.30
2019-04-20T13:07:38.243Z,26.30
2019-04-20T13:10:03.553Z,26.10
2019-04-20T13:12:50.272Z,26.00
2019-04-20T13:15:38.610Z,26.40
2019-04-20T13:18:09.468Z,26.20
2019-04-20T13:20:39.623Z,26.40
2019-04-20T13:23:09.314Z,26.30
2019-04-20T13:25:39.183Z,26.80
2019-04-20T13:28:15.394Z,27.10
2019-04-20T13:30:43.998Z,27.80
2019-04-20T13:33:12.444Z,27.80
2019-04-20T13:35:41.053Z,27.30
2019-04-20T13:38:10.010Z,26.90
2019-04-20T13:40:39.817Z,26.50
2019-04-20T13:43:09.647Z,26.50
2019-04-20T13:45:39.281Z,26.20
2019-04-20T13:48:28.766Z,26.10
2019-04-20T13:50:58.286Z,26.20
2019-04-20T13:53:27.528Z,26.20
2019-04-20T13:55:56.508Z,26.30
2019-04-20T13:58:38.905Z,26.40
2019-04-20T14:01:13.129Z,26.60
2019-04-20T14:03:42.905Z,26.50
2019-04-20T14:06:11.480Z,26.70
2019-04-20T14:08:41.216Z,26.50
2019-04-20T14:11:11.373Z,26.90
2019-04-20T14:13:45.115Z,26.80
2019-04-20T14:16:11.349Z,27.10
2019-04-20T14:18:40.958Z,27.40
2019-04-20T14:21:10.181Z,27.50
2019-04-20T14:23:39.103Z,27.50
2019-04-20T14:26:07.616Z,27.60
2019-04-20T14:28:36.755Z,28.00
2019-04-20T14:31:05.806Z,28.30
2019-04-20T14:33:41.214Z,28.60
2019-04-20T14:36:10.795Z,28.30
2019-04-20T14:38:40.241Z,28.60
2019-04-20T14:41:10.499Z,28.90
2019-04-20T14:43:39.930Z,29.30
2019-04-20T14:46:08.652Z,29.40
2019-04-20T14:48:50.137Z,29.80
2019-04-20T14:51:19.496Z,30.00
2019-04-20T14:53:49.438Z,30.20
2019-04-20T14:56:19.683Z,30.30
2019-04-20T14:59:09.698Z,30.30
2019-04-20T15:01:42.835Z,30.00
2019-04-20T15:04:16.809Z,30.30
2019-04-20T15:06:42.470Z,30.60
2019-04-20T15:09:12.744Z,30.70
2019-04-20T15:11:44.270Z,30.90
2019-04-20T15:14:11.620Z,31.20
2019-04-20T15:16:40.448Z,31.20
2019-04-20T15:19:11.808Z,31.40
2019-04-20T15:21:42.034Z,31.60
2019-04-20T15:24:11.364Z,31.60
2019-04-20T15:26:40.425Z,31.70
2019-04-20T15:29:10.487Z,31.60
2019-04-20T15:31:59.789Z,31.50
2019-04-20T15:34:28.861Z,31.60
2019-04-20T15:36:58.230Z,31.60
2019-04-20T15:39:27.367Z,32.00
2019-04-20T15:41:57.081Z,31.90
2019-04-20T15:44:27.153Z,32.10
2019-04-20T15:46:57.340Z,32.20
2019-04-20T15:49:26.365Z,32.60
2019-04-20T15:51:55.651Z,32.60
2019-04-20T15:54:25.409Z,32.90
2019-04-20T15:56:58.812Z,33.00
2019-04-20T15:59:24.410Z,33.20
2019-04-20T16:01:55.559Z,33.90
2019-04-20T16:04:44.627Z,34.10
2019-04-20T16:07:13.158Z,34.70
2019-04-20T16:09:42.157Z,34.90
2019-04-20T16:12:11.071Z,35.20
2019-04-20T16:14:39.585Z,35.60
2019-04-20T16:17:10.442Z,35.90
2019-04-20T16:19:50.647Z,35.80
2019-04-20T16:22:09.929Z,36.40
2019-04-20T16:24:46.874Z,36.70
2019-04-20T16:27:17.960Z,36.70
2019-04-20T16:29:47.421Z,36.80
2019-04-20T16:32:16.509Z,37.00
2019-04-20T16:34:46.415Z,37.40
2019-04-20T16:37:15.236Z,37.40
2019-04-20T16:39:43.687Z,37.60
2019-04-20T16:42:14.127Z,37.90
2019-04-20T16:44:43.136Z,38.20
2019-04-20T16:47:12.273Z,38.40
2019-04-20T16:49:41.200Z,38.70
2019-04-20T16:52:10.560Z,39.20
2019-04-20T16:54:39.772Z,39.70
2019-04-20T16:57:11.435Z,40.00
2019-04-20T16:59:44.616Z,40.30
2019-04-20T17:02:09.094Z,40.50
2019-04-20T17:04:37.745Z,40.80
2019-04-20T17:07:16.735Z,41.10
2019-04-20T17:09:47.431Z,41.30
2019-04-20T17:12:35.699Z,41.30
2019-04-20T17:15:07.644Z,41.50
2019-04-20T17:17:36.171Z,41.90
2019-04-20T17:20:07.321Z,42.20
2019-04-20T17:22:37.153Z,42.50
2019-04-20T17:25:08.309Z,42.60
2019-04-20T17:27:39.099Z,43.00
2019-04-20T17:30:27.379Z,43.20
2019-04-20T17:33:13.919Z,43.60
2019-04-20T17:35:53.249Z,43.90
2019-04-20T17:38:14.256Z,44.30
2019-04-20T17:41:01.485Z,44.70
2019-04-20T17:43:24.552Z,45.10
2019-04-20T17:45:57.271Z,45.10
2019-04-20T17:48:25.536Z,45.30
2019-04-20T17:51:06.545Z,45.80
2019-04-20T17:53:29.349Z,46.10
2019-04-20T17:55:54.742Z,46.50
2019-04-20T17:58:27.955Z,46.90
2019-04-20T18:01:25.669Z,47.10
2019-04-20T18:04:11.103Z,47.50
2019-04-20T18:06:27.788Z,47.70
2019-04-20T18:08:58.429Z,48.00
2019-04-20T18:11:19.567Z,48.20
2019-04-20T18:13:45.062Z,48.50
2019-04-20T18:16:36.615Z,48.80
2019-04-20T18:18:59.543Z,49.00
2019-04-20T18:21:24.439Z,49.60
2019-04-20T18:23:54.075Z,49.80
2019-04-20T18:26:46.696Z,50.40
2019-04-20T18:29:10.800Z,50.70
2019-04-20T18:31:25.822Z,51.00
2019-04-20T18:33:56.201Z,51.20
2019-04-20T18:36:32.247Z,51.60
2019-04-20T18:39:00.612Z,52.10
2019-04-20T18:41:33.958Z,52.50
2019-04-20T18:43:58.945Z,53.00
2019-04-20T18:46:49.840Z,53.10
2019-04-20T18:49:16.807Z,53.20
2019-04-20T18:51:26.244Z,54.50
2019-04-20T18:53:55.674Z,55.00
2019-04-20T18:56:31.342Z,55.50
2019-04-20T18:58:56.635Z,55.80
2019-04-20T19:01:33.269Z,56.00
2019-04-20T19:03:57.135Z,56.40
2019-04-20T19:06:26.061Z,56.70
2019-04-20T19:08:55.916Z,56.90
2019-04-20T19:11:26.703Z,57.10
2019-04-20T19:14:18.206Z,57.40
2019-04-20T19:16:55.697Z,57.70
2019-04-20T19:19:25.763Z,57.90
2019-04-20T19:21:47.783Z,58.30
2019-04-20T19:24:19.688Z,58.40
2019-04-20T19:26:51.518Z,58.70
2019-04-20T19:29:26.428Z,59.20
2019-04-20T19:32:08.796Z,59.40
2019-04-20T19:34:33.543Z,59.80
2019-04-20T19:37:02.146Z,60.00
2019-04-20T19:39:29.903Z,60.20
2019-04-20T19:41:55.578Z,60.60
2019-04-20T19:44:27.512Z,60.80
2019-04-20T19:47:10.632Z,61.20
2019-04-20T19:49:30.477Z,61.20
2019-04-20T19:52:20.159Z,61.70
2019-04-20T19:54:40.048Z,61.90
2019-04-20T19:57:04.926Z,62.30
2019-04-20T19:59:30.996Z,62.80
2019-04-20T20:01:49.749Z,62.90
2019-04-20T20:04:19.697Z,63.20
2019-04-20T20:06:53.208Z,63.50
2019-04-20T20:09:20.003Z,63.90
2019-04-20T20:11:49.961Z,64.20
2019-04-20T20:14:30.623Z,64.40
2019-04-20T20:17:15.547Z,64.90
2019-04-20T20:19:32.346Z,65.20
2019-04-20T20:22:04.793Z,65.50
2019-04-20T20:24:21.268Z,66.00
2019-04-20T20:26:56.288Z,66.20
2019-04-20T20:29:28.431Z,66.60
2019-04-20T20:32:05.118Z,66.90
2019-04-20T20:34:28.985Z,67.10
2019-04-20T20:36:54.866Z,67.60
2019-04-20T20:39:27.633Z,68.10
2019-04-20T20:42:01.569Z,68.40
2019-04-20T20:44:32.981Z,68.80
2019-04-20T20:47:00.744Z,69.30
2019-04-20T20:49:37.087Z,69.90
2019-04-20T20:52:12.063Z,70.20
2019-04-20T20:54:34.765Z,70.90
2019-04-20T20:57:01.465Z,70.90
2019-04-20T20:59:35.862Z,71.50
2019-04-20T21:02:04.834Z,71.60
2019-04-20T21:04:23.727Z,72.30
2019-04-20T21:06:52.821Z,72.80
2019-04-20T21:09:24.162Z,73.30
2019-04-20T21:12:00.717Z,73.70
2019-04-20T21:14:27.177Z,74.10
2019-04-20T21:17:01.343Z,74.80
2019-04-20T21:19:41.974Z,75.40
2019-04-20T21:22:00.015Z,75.90
2019-04-20T21:24:25.411Z,76.50
2019-04-20T21:26:55.982Z,76.90
2019-04-20T21:29:29.931Z,77.30
2019-04-20T21:32:01.644Z,77.90
2019-04-20T21:34:25.675Z,78.30
2019-04-20T21:37:07.278Z,78.80
2019-04-20T21:39:34.577Z,79.30
2019-04-20T21:42:03.964Z,79.80
2019-04-20T21:44:30.820Z,80.30
2019-04-20T21:46:58.219Z,80.50
2019-04-20T21:49:42.313Z,81.10
2019-04-20T21:52:01.642Z,81.50
2019-04-20T21:54:27.768Z,82.00
2019-04-20T21:57:01.638Z,82.50
2019-04-20T21:59:32.118Z,82.90
2019-04-20T22:02:03.410Z,83.50
2019-04-20T22:04:27.479Z,83.90
2019-04-20T22:06:56.272Z,84.50
2019-04-20T22:09:32.193Z,85.00
2019-04-20T22:11:56.030Z,85.20
2019-04-20T22:14:27.930Z,85.60
2019-04-20T22:16:57.471Z,85.90
2019-04-20T22:19:36.849Z,86.10
2019-04-20T22:22:07.687Z,86.50
2019-04-20T22:24:43.800Z,86.80
2019-04-20T22:27:07.528Z,87.60
2019-04-20T22:29:26.463Z,88.00
2019-04-20T22:32:02.715Z,88.80
2019-04-20T22:34:28.127Z,89.70
2019-04-20T22:36:55.990Z,89.80
2019-04-20T22:39:31.930Z,90.40
2019-04-20T22:42:03.104Z,90.80
2019-04-20T22:44:30.598Z,90.90
2019-04-20T22:46:58.485Z,91.20
2019-04-20T22:49:39.934Z,91.50
2019-04-20T22:52:06.338Z,91.80
2019-04-20T22:54:39.727Z,91.90
2019-04-20T22:57:08.260Z,92.20
2019-04-20T22:59:38.372Z,92.30
2019-04-20T23:02:00.584Z,92.40
2019-04-20T23:04:28.755Z,92.40
2019-04-20T23:06:59.001Z,92.50
2019-04-20T23:09:28.776Z,92.60
2019-04-20T23:12:03.542Z,92.60
2019-04-20T23:14:28.766Z,92.70
2019-04-20T23:16:57.663Z,92.70
2019-04-20T23:19:36.659Z,92.90
2019-04-20T23:22:02.645Z,93.00
2019-04-20T23:24:29.060Z,93.00
2019-04-20T23:26:57.764Z,93.00
2019-04-20T23:29:30.835Z,93.00
2019-04-20T23:32:01.354Z,93.00
2019-04-20T23:34:30.435Z,93.10
2019-04-20T23:36:56.805Z,93.10
2019-04-20T23:39:34.181Z,93.10
2019-04-20T23:42:00.573Z,93.10
2019-04-20T23:44:27.329Z,93.10
2019-04-20T23:47:02.070Z,93.20
2019-04-20T23:49:37.650Z,93.20
2019-04-20T23:52:27.653Z,93.30
2019-04-20T23:54:35.084Z,93.40
2019-04-20T23:57:01.773Z,93.60
2019-04-20T23:59:35.591Z,93.70
